sensor_id;sensor_type;location;lat;lon;timestamp;temperature;humidity
24011;DHT22;12217;50.792;4.372;2024-01-15T00:01:49;3.00;99.90
24011;DHT22;12217;50.792;4.372;2024-01-15T00:04:18;2.80;99.90
24011;DHT22;12217;50.792;4.372;2024-01-15T00:06:43;2.90;99.90
24011;DHT22;12217;50.792;4.372;2024-01-15T00:09:09;3.20;99.90
24011;DHT22;12217;50.792;4.372;2024-01-15T00:11:35;3.10;99.90
24011;DHT22;12217;50.792;4.372;2024-01-15T00:14:01;3.10;99.90
24011;DHT22;12217;50.792;4.372;2024-01-15T00:16:26;3.20;99.90
24011;DHT22;12217;50.792;4.372;2024-01-15T00:18:52;3.30;99.90
24011;DHT22;12217;50.792;4.372;2024-01-15T00:21:17;3.30;99.90
24011;DHT22;12217;50.792;4.372;2024-01-15T00:23:43;3.30;99.90
24011;DHT22;12217;50.792;4.372;2024-01-15T00:26:12;3.20;99.90
24011;DHT22;12217;50.792;4.372;2024-01-15T00:28:38;3.00;99.90
24011;DHT22;12217;50.792;4.372;2024-01-15T00:31:07;3.00;99.90
24011;DHT22;12217;50.792;4.372;2024-01-15T00:33:32;3.10;99.90
24011;DHT22;12217;50.792;4.372;2024-01-15T00:35:58;3.00;99.90
24011;DHT22;12217;50.792;4.372;2024-01-15T00:38:24;3.10;99.90
24011;DHT22;12217;50.792;4.372;2024-01-15T00:40:50;3.00;99.90
24011;DHT22;12217;50.792;4.372;2024-01-15T00:43:15;3.10;99.90
24011;DHT22;12217;50.792;4.372;2024-01-15T00:45:43;3.30;99.90
24011;DHT22;12217;50.792;4.372;2024-01-15T00:48:09;3.30;99.90
24011;DHT22;12217;50.792;4.372;2024-01-15T00:50:34;3.40;99.90
24011;DHT22;12217;50.792;4.372;2024-01-15T00:53:00;3.30;99.90
24011;DHT22;12217;50.792;4.372;2024-01-15T00:55:28;3.10;99.90
24011;DHT22;12217;50.792;4.372;2024-01-15T00:57:54;3.10;99.90
24011;DHT22;12217;50.792;4.372;2024-01-15T01:00:19;3.20;99.90
24011;DHT22;12217;50.792;4.372;2024-01-15T01:02:45;3.20;99.90
24011;DHT22;12217;50.792;4.372;2024-01-15T01:05:11;3.30;99.90
24011;DHT22;12217;50.792;4.372;2024-01-15T01:07:36;3.20;99.90
24011;DHT22;12217;50.792;4.372;2024-01-15T01:10:02;3.10;99.90
24011;DHT22;12217;50.792;4.372;2024-01-15T01:12:28;3.20;99.90
24011;DHT22;12217;50.792;4.372;2024-01-15T01:14:55;3.40;99.90
24011;DHT22;12217;50.792;4.372;2024-01-15T01:17:21;3.30;99.90
24011;DHT22;12217;50.792;4.372;2024-01-15T01:19:46;3.30;99.90
24011;DHT22;12217;50.792;4.372;2024-01-15T01:22:12;3.50;99.90
24011;DHT22;12217;50.792;4.372;2024-01-15T01:24:37;3.50;99.90
24011;DHT22;12217;50.792;4.372;2024-01-15T01:27:03;3.30;99.90
24011;DHT22;12217;50.792;4.372;2024-01-15T01:29:29;3.10;99.90
24011;DHT22;12217;50.792;4.372;2024-01-15T01:31:54;3.20;99.90
24011;DHT22;12217;50.792;4.372;2024-01-15T01:34:21;3.00;99.90
24011;DHT22;12217;50.792;4.372;2024-01-15T01:36:47;3.10;99.90
24011;DHT22;12217;50.792;4.372;2024-01-15T01:39:13;3.20;99.90
24011;DHT22;12217;50.792;4.372;2024-01-15T01:41:39;3.10;99.90
24011;DHT22;12217;50.792;4.372;2024-01-15T01:44:05;3.20;99.90
24011;DHT22;12217;50.792;4.372;2024-01-15T01:46:31;3.30;99.90
24011;DHT22;12217;50.792;4.372;2024-01-15T01:48:57;3.10;99.90
24011;DHT22;12217;50.792;4.372;2024-01-15T01:51:24;3.00;99.90
24011;DHT22;12217;50.792;4.372;2024-01-15T01:53:50;2.80;99.90
24011;DHT22;12217;50.792;4.372;2024-01-15T01:56:17;2.80;99.90
24011;DHT22;12217;50.792;4.372;2024-01-15T01:58:44;2.90;99.90
24011;DHT22;12217;50.792;4.372;2024-01-15T02:01:11;3.00;99.90
24011;DHT22;12217;50.792;4.372;2024-01-15T02:03:37;3.10;99.90
24011;DHT22;12217;50.792;4.372;2024-01-15T02:06:03;3.20;99.90
24011;DHT22;12217;50.792;4.372;2024-01-15T02:08:29;3.30;99.90
24011;DHT22;12217;50.792;4.372;2024-01-15T02:10:55;3.40;99.90
24011;DHT22;12217;50.792;4.372;2024-01-15T02:13:21;3.40;99.90
24011;DHT22;12217;50.792;4.372;2024-01-15T02:15:47;3.40;99.90
24011;DHT22;12217;50.792;4.372;2024-01-15T02:18:12;3.40;99.90
24011;DHT22;12217;50.792;4.372;2024-01-15T02:20:38;3.50;99.90
24011;DHT22;12217;50.792;4.372;2024-01-15T02:25:32;3.50;99.90
24011;DHT22;12217;50.792;4.372;2024-01-15T02:27:58;3.50;99.90
24011;DHT22;12217;50.792;4.372;2024-01-15T02:30:25;3.40;99.90
24011;DHT22;12217;50.792;4.372;2024-01-15T02:32:51;3.60;99.90
24011;DHT22;12217;50.792;4.372;2024-01-15T02:35:17;3.70;99.90
24011;DHT22;12217;50.792;4.372;2024-01-15T02:37:43;3.90;99.90
24011;DHT22;12217;50.792;4.372;2024-01-15T02:40:09;3.80;99.90
24011;DHT22;12217;50.792;4.372;2024-01-15T02:42:35;3.80;99.90
24011;DHT22;12217;50.792;4.372;2024-01-15T02:45:00;3.80;99.90
24011;DHT22;12217;50.792;4.372;2024-01-15T02:47:26;3.80;99.90
24011;DHT22;12217;50.792;4.372;2024-01-15T02:49:51;3.80;99.90
24011;DHT22;12217;50.792;4.372;2024-01-15T02:52:17;3.80;99.90
24011;DHT22;12217;50.792;4.372;2024-01-15T02:54:43;3.70;99.90
24011;DHT22;12217;50.792;4.372;2024-01-15T02:57:09;3.80;99.90
24011;DHT22;12217;50.792;4.372;2024-01-15T02:59:34;3.80;99.90
24011;DHT22;12217;50.792;4.372;2024-01-15T03:02:00;3.60;99.90
24011;DHT22;12217;50.792;4.372;2024-01-15T03:04:25;3.50;99.90
24011;DHT22;12217;50.792;4.372;2024-01-15T03:06:51;3.50;99.90
24011;DHT22;12217;50.792;4.372;2024-01-15T03:09:16;3.60;99.90
24011;DHT22;12217;50.792;4.372;2024-01-15T03:11:42;3.70;99.90
24011;DHT22;12217;50.792;4.372;2024-01-15T03:14:08;3.80;99.90
24011;DHT22;12217;50.792;4.372;2024-01-15T03:16:33;3.90;99.90
24011;DHT22;12217;50.792;4.372;2024-01-15T03:18:59;3.60;99.90
24011;DHT22;12217;50.792;4.372;2024-01-15T03:21:24;3.50;99.90
24011;DHT22;12217;50.792;4.372;2024-01-15T03:23:50;3.50;99.90
24011;DHT22;12217;50.792;4.372;2024-01-15T03:26:15;3.50;99.90
24011;DHT22;12217;50.792;4.372;2024-01-15T03:28:41;3.50;99.90
24011;DHT22;12217;50.792;4.372;2024-01-15T03:31:07;3.60;99.90
24011;DHT22;12217;50.792;4.372;2024-01-15T03:33:33;3.60;99.90
24011;DHT22;12217;50.792;4.372;2024-01-15T03:35:59;3.50;99.90
24011;DHT22;12217;50.792;4.372;2024-01-15T03:38:27;3.20;99.90
24011;DHT22;12217;50.792;4.372;2024-01-15T03:40:52;3.00;99.90
24011;DHT22;12217;50.792;4.372;2024-01-15T03:43:18;2.90;99.90
24011;DHT22;12217;50.792;4.372;2024-01-15T03:45:43;3.00;99.90
24011;DHT22;12217;50.792;4.372;2024-01-15T03:48:09;2.80;99.90
24011;DHT22;12217;50.792;4.372;2024-01-15T03:50:35;3.00;99.90
24011;DHT22;12217;50.792;4.372;2024-01-15T03:53:00;3.10;99.90
24011;DHT22;12217;50.792;4.372;2024-01-15T03:55:26;3.20;99.90
24011;DHT22;12217;50.792;4.372;2024-01-15T03:57:51;3.30;99.90
24011;DHT22;12217;50.792;4.372;2024-01-15T04:00:17;3.20;99.90
24011;DHT22;12217;50.792;4.372;2024-01-15T04:02:43;3.30;99.90
24011;DHT22;12217;50.792;4.372;2024-01-15T04:05:09;3.10;99.90
24011;DHT22;12217;50.792;4.372;2024-01-15T04:07:35;3.10;99.90
24011;DHT22;12217;50.792;4.372;2024-01-15T04:10:01;3.10;99.90
24011;DHT22;12217;50.792;4.372;2024-01-15T04:12:26;3.10;99.90
24011;DHT22;12217;50.792;4.372;2024-01-15T04:14:52;3.20;99.90
24011;DHT22;12217;50.792;4.372;2024-01-15T04:17:18;3.10;99.90
24011;DHT22;12217;50.792;4.372;2024-01-15T04:19:44;3.20;99.90
24011;DHT22;12217;50.792;4.372;2024-01-15T04:22:10;3.20;99.90
24011;DHT22;12217;50.792;4.372;2024-01-15T04:24:35;3.10;99.90
24011;DHT22;12217;50.792;4.372;2024-01-15T04:27:01;3.20;99.90
24011;DHT22;12217;50.792;4.372;2024-01-15T04:29:26;3.30;99.90
24011;DHT22;12217;50.792;4.372;2024-01-15T04:31:53;3.30;99.90
24011;DHT22;12217;50.792;4.372;2024-01-15T04:34:18;3.30;99.90
24011;DHT22;12217;50.792;4.372;2024-01-15T04:36:44;3.20;99.90
24011;DHT22;12217;50.792;4.372;2024-01-15T04:39:09;3.20;99.90
24011;DHT22;12217;50.792;4.372;2024-01-15T04:41:37;3.30;99.90
24011;DHT22;12217;50.792;4.372;2024-01-15T04:44:03;3.20;99.90
24011;DHT22;12217;50.792;4.372;2024-01-15T04:46:28;3.20;99.90
24011;DHT22;12217;50.792;4.372;2024-01-15T04:48:54;3.10;99.90
24011;DHT22;12217;50.792;4.372;2024-01-15T04:51:19;3.00;99.90
24011;DHT22;12217;50.792;4.372;2024-01-15T04:53:45;3.00;99.90
24011;DHT22;12217;50.792;4.372;2024-01-15T04:56:10;3.10;99.90
24011;DHT22;12217;50.792;4.372;2024-01-15T04:58:36;3.00;99.90
24011;DHT22;12217;50.792;4.372;2024-01-15T05:01:02;3.00;99.90
24011;DHT22;12217;50.792;4.372;2024-01-15T05:03:27;2.90;99.90
24011;DHT22;12217;50.792;4.372;2024-01-15T05:05:53;3.00;99.90
24011;DHT22;12217;50.792;4.372;2024-01-15T05:08:19;2.80;99.90
24011;DHT22;12217;50.792;4.372;2024-01-15T05:10:44;2.90;99.90
24011;DHT22;12217;50.792;4.372;2024-01-15T05:13:10;2.90;99.90
24011;DHT22;12217;50.792;4.372;2024-01-15T05:15:36;3.10;99.90
24011;DHT22;12217;50.792;4.372;2024-01-15T05:18:01;3.10;99.90
24011;DHT22;12217;50.792;4.372;2024-01-15T05:20:27;3.10;99.90
24011;DHT22;12217;50.792;4.372;2024-01-15T05:22:53;3.10;99.90
24011;DHT22;12217;50.792;4.372;2024-01-15T05:25:18;3.00;99.90
24011;DHT22;12217;50.792;4.372;2024-01-15T05:27:44;3.00;99.90
24011;DHT22;12217;50.792;4.372;2024-01-15T05:30:10;3.10;99.90
24011;DHT22;12217;50.792;4.372;2024-01-15T05:32:36;3.00;99.90
24011;DHT22;12217;50.792;4.372;2024-01-15T05:35:01;2.90;99.90
24011;DHT22;12217;50.792;4.372;2024-01-15T05:37:27;3.00;99.90
24011;DHT22;12217;50.792;4.372;2024-01-15T05:39:52;3.10;99.90
24011;DHT22;12217;50.792;4.372;2024-01-15T05:42:18;3.20;99.90
24011;DHT22;12217;50.792;4.372;2024-01-15T05:44:43;3.10;99.90
24011;DHT22;12217;50.792;4.372;2024-01-15T05:47:09;3.00;99.90
24011;DHT22;12217;50.792;4.372;2024-01-15T05:49:35;3.00;99.90
24011;DHT22;12217;50.792;4.372;2024-01-15T05:52:01;2.80;99.90
24011;DHT22;12217;50.792;4.372;2024-01-15T05:54:27;2.60;99.90
24011;DHT22;12217;50.792;4.372;2024-01-15T05:56:52;2.50;99.90
24011;DHT22;12217;50.792;4.372;2024-01-15T05:59:18;2.50;99.90
24011;DHT22;12217;50.792;4.372;2024-01-15T06:01:43;2.50;99.90
24011;DHT22;12217;50.792;4.372;2024-01-15T06:04:09;2.60;99.90
24011;DHT22;12217;50.792;4.372;2024-01-15T06:06:35;2.70;99.90
24011;DHT22;12217;50.792;4.372;2024-01-15T06:09:01;2.80;99.90
24011;DHT22;12217;50.792;4.372;2024-01-15T06:11:31;2.70;99.90
24011;DHT22;12217;50.792;4.372;2024-01-15T06:13:57;2.50;99.90
24011;DHT22;12217;50.792;4.372;2024-01-15T06:16:23;2.50;99.90
24011;DHT22;12217;50.792;4.372;2024-01-15T06:18:49;2.50;99.90
24011;DHT22;12217;50.792;4.372;2024-01-15T06:21:16;2.60;99.90
24011;DHT22;12217;50.792;4.372;2024-01-15T06:23:42;2.70;99.90
24011;DHT22;12217;50.792;4.372;2024-01-15T06:26:07;2.70;99.90
24011;DHT22;12217;50.792;4.372;2024-01-15T06:28:33;2.80;99.90
24011;DHT22;12217;50.792;4.372;2024-01-15T06:30:58;3.00;99.90
24011;DHT22;12217;50.792;4.372;2024-01-15T06:33:24;3.00;99.90
24011;DHT22;12217;50.792;4.372;2024-01-15T06:35:50;3.00;99.90
24011;DHT22;12217;50.792;4.372;2024-01-15T06:38:16;3.20;99.90
24011;DHT22;12217;50.792;4.372;2024-01-15T06:40:42;3.20;99.90
24011;DHT22;12217;50.792;4.372;2024-01-15T06:43:11;3.20;99.90
24011;DHT22;12217;50.792;4.372;2024-01-15T06:45:37;3.10;99.90
24011;DHT22;12217;50.792;4.372;2024-01-15T06:48:03;3.10;99.90
24011;DHT22;12217;50.792;4.372;2024-01-15T06:50:28;3.10;99.90
24011;DHT22;12217;50.792;4.372;2024-01-15T06:52:54;3.00;99.90
24011;DHT22;12217;50.792;4.372;2024-01-15T06:55:20;3.00;99.90
24011;DHT22;12217;50.792;4.372;2024-01-15T06:57:45;2.90;99.90
24011;DHT22;12217;50.792;4.372;2024-01-15T07:00:11;3.10;99.90
24011;DHT22;12217;50.792;4.372;2024-01-15T07:02:37;3.00;99.90
24011;DHT22;12217;50.792;4.372;2024-01-15T07:05:03;2.80;99.90
24011;DHT22;12217;50.792;4.372;2024-01-15T07:07:30;2.60;99.90
24011;DHT22;12217;50.792;4.372;2024-01-15T07:09:56;2.80;99.90
24011;DHT22;12217;50.792;4.372;2024-01-15T07:12:23;2.80;99.90
24011;DHT22;12217;50.792;4.372;2024-01-15T07:14:49;2.80;99.90
24011;DHT22;12217;50.792;4.372;2024-01-15T07:17:15;2.80;99.90
24011;DHT22;12217;50.792;4.372;2024-01-15T07:19:41;2.70;99.90
24011;DHT22;12217;50.792;4.372;2024-01-15T07:22:06;3.00;99.90
24011;DHT22;12217;50.792;4.372;2024-01-15T07:24:35;3.00;99.90
24011;DHT22;12217;50.792;4.372;2024-01-15T07:27:01;3.00;99.90
24011;DHT22;12217;50.792;4.372;2024-01-15T07:29:26;3.00;99.90
24011;DHT22;12217;50.792;4.372;2024-01-15T07:31:52;2.90;99.90
24011;DHT22;12217;50.792;4.372;2024-01-15T07:34:18;2.80;99.90
24011;DHT22;12217;50.792;4.372;2024-01-15T07:36:44;2.80;99.90
24011;DHT22;12217;50.792;4.372;2024-01-15T07:39:10;2.80;99.90
24011;DHT22;12217;50.792;4.372;2024-01-15T07:41:36;2.70;99.90
24011;DHT22;12217;50.792;4.372;2024-01-15T07:44:02;2.80;99.90
24011;DHT22;12217;50.792;4.372;2024-01-15T07:46:28;2.60;99.90
24011;DHT22;12217;50.792;4.372;2024-01-15T07:48:54;2.70;99.90
24011;DHT22;12217;50.792;4.372;2024-01-15T07:51:23;2.60;99.90
24011;DHT22;12217;50.792;4.372;2024-01-15T07:53:49;2.70;99.90
24011;DHT22;12217;50.792;4.372;2024-01-15T07:56:14;2.70;99.90
24011;DHT22;12217;50.792;4.372;2024-01-15T07:58:41;2.60;99.90
24011;DHT22;12217;50.792;4.372;2024-01-15T08:01:07;2.50;99.90
24011;DHT22;12217;50.792;4.372;2024-01-15T08:03:33;2.60;99.90
24011;DHT22;12217;50.792;4.372;2024-01-15T08:05:59;2.80;99.90
24011;DHT22;12217;50.792;4.372;2024-01-15T08:08:25;2.80;99.90
24011;DHT22;12217;50.792;4.372;2024-01-15T08:10:52;2.80;99.90
24011;DHT22;12217;50.792;4.372;2024-01-15T08:13:18;2.80;99.90
24011;DHT22;12217;50.792;4.372;2024-01-15T08:15:44;2.90;99.90
24011;DHT22;12217;50.792;4.372;2024-01-15T08:18:10;2.90;99.90
24011;DHT22;12217;50.792;4.372;2024-01-15T08:20:35;2.80;99.90
24011;DHT22;12217;50.792;4.372;2024-01-15T08:23:02;2.70;99.90
24011;DHT22;12217;50.792;4.372;2024-01-15T08:25:27;2.60;99.90
24011;DHT22;12217;50.792;4.372;2024-01-15T08:27:53;2.70;99.90
24011;DHT22;12217;50.792;4.372;2024-01-15T08:30:18;2.50;99.90
24011;DHT22;12217;50.792;4.372;2024-01-15T08:32:45;2.50;99.90
24011;DHT22;12217;50.792;4.372;2024-01-15T08:35:11;2.60;99.90
24011;DHT22;12217;50.792;4.372;2024-01-15T08:37:38;2.60;99.90
24011;DHT22;12217;50.792;4.372;2024-01-15T08:40:04;2.80;99.90
24011;DHT22;12217;50.792;4.372;2024-01-15T08:42:30;2.70;99.90
24011;DHT22;12217;50.792;4.372;2024-01-15T08:44:55;2.80;99.90
24011;DHT22;12217;50.792;4.372;2024-01-15T08:47:21;2.80;99.90
24011;DHT22;12217;50.792;4.372;2024-01-15T08:49:46;2.80;99.90
24011;DHT22;12217;50.792;4.372;2024-01-15T08:52:12;2.90;99.90
24011;DHT22;12217;50.792;4.372;2024-01-15T08:54:39;3.00;99.90
24011;DHT22;12217;50.792;4.372;2024-01-15T08:57:04;3.00;99.90
24011;DHT22;12217;50.792;4.372;2024-01-15T08:59:30;3.10;99.90
24011;DHT22;12217;50.792;4.372;2024-01-15T09:01:55;3.10;99.90
24011;DHT22;12217;50.792;4.372;2024-01-15T09:04:24;3.10;99.90
24011;DHT22;12217;50.792;4.372;2024-01-15T09:06:50;3.00;99.90
24011;DHT22;12217;50.792;4.372;2024-01-15T09:09:15;3.10;99.90
24011;DHT22;12217;50.792;4.372;2024-01-15T09:11:41;3.20;99.90
24011;DHT22;12217;50.792;4.372;2024-01-15T09:14:07;3.20;99.90
24011;DHT22;12217;50.792;4.372;2024-01-15T09:16:33;3.10;99.90
24011;DHT22;12217;50.792;4.372;2024-01-15T09:18:59;3.00;99.90
24011;DHT22;12217;50.792;4.372;2024-01-15T09:21:25;3.20;99.90
24011;DHT22;12217;50.792;4.372;2024-01-15T09:23:51;3.20;99.90
24011;DHT22;12217;50.792;4.372;2024-01-15T09:26:17;3.30;99.90
24011;DHT22;12217;50.792;4.372;2024-01-15T09:28:43;3.30;99.90
24011;DHT22;12217;50.792;4.372;2024-01-15T09:31:08;3.40;99.90
24011;DHT22;12217;50.792;4.372;2024-01-15T09:33:34;3.50;99.90
24011;DHT22;12217;50.792;4.372;2024-01-15T09:36:03;3.80;99.90
24011;DHT22;12217;50.792;4.372;2024-01-15T09:38:29;4.00;99.90
24011;DHT22;12217;50.792;4.372;2024-01-15T09:40:57;3.90;99.90
24011;DHT22;12217;50.792;4.372;2024-01-15T09:43:23;3.90;99.90
24011;DHT22;12217;50.792;4.372;2024-01-15T09:45:49;4.10;99.90
24011;DHT22;12217;50.792;4.372;2024-01-15T09:48:16;4.00;99.90
24011;DHT22;12217;50.792;4.372;2024-01-15T09:50:42;4.20;99.90
24011;DHT22;12217;50.792;4.372;2024-01-15T09:53:09;4.30;99.90
24011;DHT22;12217;50.792;4.372;2024-01-15T09:55:36;4.30;99.90
24011;DHT22;12217;50.792;4.372;2024-01-15T09:58:06;4.50;99.90
24011;DHT22;12217;50.792;4.372;2024-01-15T10:00:33;4.70;99.90
24011;DHT22;12217;50.792;4.372;2024-01-15T10:02:59;4.50;99.90
24011;DHT22;12217;50.792;4.372;2024-01-15T10:05:26;4.40;99.90
24011;DHT22;12217;50.792;4.372;2024-01-15T10:07:53;4.60;99.90
24011;DHT22;12217;50.792;4.372;2024-01-15T10:10:20;4.90;99.90
24011;DHT22;12217;50.792;4.372;2024-01-15T10:12:49;5.10;99.90
24011;DHT22;12217;50.792;4.372;2024-01-15T10:15:15;5.10;99.90
24011;DHT22;12217;50.792;4.372;2024-01-15T10:17:41;4.90;99.90
24011;DHT22;12217;50.792;4.372;2024-01-15T10:20:09;5.00;99.90
24011;DHT22;12217;50.792;4.372;2024-01-15T10:22:35;5.00;99.90
24011;DHT22;12217;50.792;4.372;2024-01-15T10:25:04;5.10;99.90
24011;DHT22;12217;50.792;4.372;2024-01-15T10:27:30;5.10;99.90
24011;DHT22;12217;50.792;4.372;2024-01-15T10:29:59;4.90;99.90
24011;DHT22;12217;50.792;4.372;2024-01-15T10:32:36;5.00;99.90
24011;DHT22;12217;50.792;4.372;2024-01-15T10:35:10;5.40;99.90
24011;DHT22;12217;50.792;4.372;2024-01-15T10:37:36;5.70;99.90
24011;DHT22;12217;50.792;4.372;2024-01-15T10:40:02;5.40;99.90
24011;DHT22;12217;50.792;4.372;2024-01-15T10:42:30;5.60;99.90
24011;DHT22;12217;50.792;4.372;2024-01-15T10:44:56;5.80;99.90
24011;DHT22;12217;50.792;4.372;2024-01-15T10:47:22;5.60;99.90
24011;DHT22;12217;50.792;4.372;2024-01-15T10:49:48;5.50;99.90
24011;DHT22;12217;50.792;4.372;2024-01-15T10:52:15;5.90;99.90
24011;DHT22;12217;50.792;4.372;2024-01-15T10:54:41;6.00;99.90
24011;DHT22;12217;50.792;4.372;2024-01-15T10:57:08;6.40;99.90
24011;DHT22;12217;50.792;4.372;2024-01-15T10:59:34;7.30;99.90
24011;DHT22;12217;50.792;4.372;2024-01-15T11:02:01;8.20;99.90
24011;DHT22;12217;50.792;4.372;2024-01-15T11:04:27;9.20;99.90
24011;DHT22;12217;50.792;4.372;2024-01-15T11:06:54;9.60;99.90
24011;DHT22;12217;50.792;4.372;2024-01-15T11:09:21;9.40;99.90
24011;DHT22;12217;50.792;4.372;2024-01-15T11:11:47;8.70;99.90
24011;DHT22;12217;50.792;4.372;2024-01-15T11:14:33;8.30;99.90
24011;DHT22;12217;50.792;4.372;2024-01-15T11:16:59;8.20;99.90
24011;DHT22;12217;50.792;4.372;2024-01-15T11:19:25;8.90;99.90
24011;DHT22;12217;50.792;4.372;2024-01-15T11:21:50;10.30;99.90
24011;DHT22;12217;50.792;4.372;2024-01-15T11:24:39;9.80;99.90
24011;DHT22;12217;50.792;4.372;2024-01-15T11:27:06;9.60;99.90
24011;DHT22;12217;50.792;4.372;2024-01-15T11:29:36;8.60;99.90
24011;DHT22;12217;50.792;4.372;2024-01-15T11:32:05;7.90;99.90
24011;DHT22;12217;50.792;4.372;2024-01-15T11:34:58;7.30;99.90
24011;DHT22;12217;50.792;4.372;2024-01-15T11:37:24;6.90;99.90
24011;DHT22;12217;50.792;4.372;2024-01-15T11:40:01;6.90;99.90
24011;DHT22;12217;50.792;4.372;2024-01-15T11:42:29;7.10;99.90
24011;DHT22;12217;50.792;4.372;2024-01-15T11:44:55;7.10;99.90
24011;DHT22;12217;50.792;4.372;2024-01-15T11:50:22;7.20;99.90
24011;DHT22;12217;50.792;4.372;2024-01-15T11:53:01;7.90;99.90
24011;DHT22;12217;50.792;4.372;2024-01-15T11:55:34;8.90;99.90
24011;DHT22;12217;50.792;4.372;2024-01-15T11:58:08;9.20;99.90
24011;DHT22;12217;50.792;4.372;2024-01-15T12:00:42;8.20;99.90
24011;DHT22;12217;50.792;4.372;2024-01-15T12:03:09;8.10;99.90
24011;DHT22;12217;50.792;4.372;2024-01-15T12:05:37;9.20;99.90
24011;DHT22;12217;50.792;4.372;2024-01-15T12:08:03;10.50;99.90
24011;DHT22;12217;50.792;4.372;2024-01-15T12:10:29;12.90;99.90
24011;DHT22;12217;50.792;4.372;2024-01-15T12:15:28;14.60;97.30
24011;DHT22;12217;50.792;4.372;2024-01-15T12:17:58;14.90;95.50
24011;DHT22;12217;50.792;4.372;2024-01-15T12:20:27;14.30;93.70
24011;DHT22;12217;50.792;4.372;2024-01-15T12:22:53;14.50;92.10
24011;DHT22;12217;50.792;4.372;2024-01-15T12:25:23;13.80;92.80
24011;DHT22;12217;50.792;4.372;2024-01-15T12:27:50;13.80;91.70
24011;DHT22;12217;50.792;4.372;2024-01-15T12:30:15;13.00;92.80
24011;DHT22;12217;50.792;4.372;2024-01-15T12:32:42;12.00;94.60
24011;DHT22;12217;50.792;4.372;2024-01-15T12:35:09;12.30;95.90
24011;DHT22;12217;50.792;4.372;2024-01-15T12:37:39;11.90;94.80
24011;DHT22;12217;50.792;4.372;2024-01-15T12:40:09;11.50;97.20
24011;DHT22;12217;50.792;4.372;2024-01-15T12:42:41;10.60;99.90
24011;DHT22;12217;50.792;4.372;2024-01-15T12:45:09;10.10;99.90
24011;DHT22;12217;50.792;4.372;2024-01-15T12:47:35;9.80;99.90
24011;DHT22;12217;50.792;4.372;2024-01-15T12:50:01;8.80;99.90
24011;DHT22;12217;50.792;4.372;2024-01-15T12:52:30;8.10;99.90
24011;DHT22;12217;50.792;4.372;2024-01-15T12:54:56;7.30;99.90
24011;DHT22;12217;50.792;4.372;2024-01-15T12:57:22;6.80;99.90
24011;DHT22;12217;50.792;4.372;2024-01-15T12:59:48;6.50;99.90
24011;DHT22;12217;50.792;4.372;2024-01-15T13:02:15;6.40;99.90
24011;DHT22;12217;50.792;4.372;2024-01-15T13:04:42;6.40;99.90
24011;DHT22;12217;50.792;4.372;2024-01-15T13:07:08;6.30;99.90
24011;DHT22;12217;50.792;4.372;2024-01-15T13:09:34;6.00;99.90
24011;DHT22;12217;50.792;4.372;2024-01-15T13:12:01;5.70;99.90
24011;DHT22;12217;50.792;4.372;2024-01-15T13:14:28;5.50;99.90
24011;DHT22;12217;50.792;4.372;2024-01-15T13:16:53;5.40;99.90
24011;DHT22;12217;50.792;4.372;2024-01-15T13:19:19;5.50;99.90
24011;DHT22;12217;50.792;4.372;2024-01-15T13:21:46;5.50;99.90
24011;DHT22;12217;50.792;4.372;2024-01-15T13:24:12;5.60;99.90
24011;DHT22;12217;50.792;4.372;2024-01-15T13:26:37;5.50;99.90
24011;DHT22;12217;50.792;4.372;2024-01-15T13:29:03;5.30;99.90
24011;DHT22;12217;50.792;4.372;2024-01-15T13:31:30;5.20;99.90
24011;DHT22;12217;50.792;4.372;2024-01-15T13:33:55;5.10;99.90
24011;DHT22;12217;50.792;4.372;2024-01-15T13:36:22;5.30;99.90
24011;DHT22;12217;50.792;4.372;2024-01-15T13:38:51;5.60;99.90
24011;DHT22;12217;50.792;4.372;2024-01-15T13:41:21;5.80;99.90
24011;DHT22;12217;50.792;4.372;2024-01-15T13:43:54;5.50;99.90
24011;DHT22;12217;50.792;4.372;2024-01-15T13:46:22;5.60;99.90
24011;DHT22;12217;50.792;4.372;2024-01-15T13:48:48;6.20;99.90
24011;DHT22;12217;50.792;4.372;2024-01-15T13:51:14;6.40;99.90
24011;DHT22;12217;50.792;4.372;2024-01-15T13:53:39;6.40;99.90
24011;DHT22;12217;50.792;4.372;2024-01-15T13:56:06;6.10;99.90
24011;DHT22;12217;50.792;4.372;2024-01-15T13:58:32;5.70;99.90
24011;DHT22;12217;50.792;4.372;2024-01-15T14:01:01;5.60;99.90
24011;DHT22;12217;50.792;4.372;2024-01-15T14:03:28;5.30;99.90
24011;DHT22;12217;50.792;4.372;2024-01-15T14:05:55;5.40;99.90
24011;DHT22;12217;50.792;4.372;2024-01-15T14:08:20;5.30;99.90
24011;DHT22;12217;50.792;4.372;2024-01-15T14:10:46;5.10;99.90
24011;DHT22;12217;50.792;4.372;2024-01-15T14:13:11;5.10;99.90
24011;DHT22;12217;50.792;4.372;2024-01-15T14:15:37;5.10;99.90
24011;DHT22;12217;50.792;4.372;2024-01-15T14:18:03;4.90;99.90
24011;DHT22;12217;50.792;4.372;2024-01-15T14:20:29;4.70;99.90
24011;DHT22;12217;50.792;4.372;2024-01-15T14:22:54;4.70;99.90
24011;DHT22;12217;50.792;4.372;2024-01-15T14:25:20;4.70;99.90
24011;DHT22;12217;50.792;4.372;2024-01-15T14:27:46;4.70;99.90
24011;DHT22;12217;50.792;4.372;2024-01-15T14:30:12;4.80;99.90
24011;DHT22;12217;50.792;4.372;2024-01-15T14:32:39;4.80;99.90
24011;DHT22;12217;50.792;4.372;2024-01-15T14:35:05;5.00;99.90
24011;DHT22;12217;50.792;4.372;2024-01-15T14:37:31;5.00;99.90
24011;DHT22;12217;50.792;4.372;2024-01-15T14:39:57;5.10;99.90
24011;DHT22;12217;50.792;4.372;2024-01-15T14:42:23;5.00;99.90
24011;DHT22;12217;50.792;4.372;2024-01-15T14:44:49;4.90;99.90
24011;DHT22;12217;50.792;4.372;2024-01-15T14:47:15;4.90;99.90
24011;DHT22;12217;50.792;4.372;2024-01-15T14:49:40;4.90;99.90
24011;DHT22;12217;50.792;4.372;2024-01-15T14:52:06;5.10;99.90
24011;DHT22;12217;50.792;4.372;2024-01-15T14:54:32;5.10;99.90
24011;DHT22;12217;50.792;4.372;2024-01-15T14:56:57;5.20;99.90
24011;DHT22;12217;50.792;4.372;2024-01-15T14:59:23;5.20;99.90
24011;DHT22;12217;50.792;4.372;2024-01-15T15:01:49;5.30;99.90
24011;DHT22;12217;50.792;4.372;2024-01-15T15:04:14;5.30;99.90
24011;DHT22;12217;50.792;4.372;2024-01-15T15:06:40;5.20;99.90
24011;DHT22;12217;50.792;4.372;2024-01-15T15:09:05;5.00;99.90
24011;DHT22;12217;50.792;4.372;2024-01-15T15:11:35;4.80;99.90
24011;DHT22;12217;50.792;4.372;2024-01-15T15:14:01;4.70;99.90
24011;DHT22;12217;50.792;4.372;2024-01-15T15:16:29;4.60;99.90
24011;DHT22;12217;50.792;4.372;2024-01-15T15:18:55;4.50;99.90
24011;DHT22;12217;50.792;4.372;2024-01-15T15:21:20;4.40;99.90
24011;DHT22;12217;50.792;4.372;2024-01-15T15:23:46;4.40;99.90
24011;DHT22;12217;50.792;4.372;2024-01-15T15:26:13;4.30;99.90
24011;DHT22;12217;50.792;4.372;2024-01-15T15:28:39;4.20;99.90
24011;DHT22;12217;50.792;4.372;2024-01-15T15:31:05;4.20;99.90
24011;DHT22;12217;50.792;4.372;2024-01-15T15:33:36;4.40;99.90
24011;DHT22;12217;50.792;4.372;2024-01-15T15:36:02;4.50;99.90
24011;DHT22;12217;50.792;4.372;2024-01-15T15:38:31;4.60;99.90
24011;DHT22;12217;50.792;4.372;2024-01-15T15:40:57;4.50;99.90
24011;DHT22;12217;50.792;4.372;2024-01-15T15:43:25;4.50;99.90
24011;DHT22;12217;50.792;4.372;2024-01-15T15:45:51;4.50;99.90
24011;DHT22;12217;50.792;4.372;2024-01-15T15:48:16;4.30;99.90